Airfield :
LOGIN :

Register | Disclaimer

   EN    FR    IT 

 










Legend :    VFR   Marginal VFR   IFR   Intensive IFR   Very Intensive IFR
Visi :
Ceiling :
>= 8 km
>= 3000ft
5 to 8 km
1000 to 3000 ft
1500m to 5 km
500 to 1000 ft
800 to 1500m
200 to 500 ft
< 800m
< 200 ft
Symbols :   Thunderstorms  Fog  Heavy snow  Heavy precipitations  Wind > 20 kt
SIGMETs :     Misc.  Thunderstorms  Icing  Turbulence  Mountain Waves  Volcanic Ashes







- Airport Elevation : 37 ft


EHVL - Vlieland Heliport

CURRENT METAR :
  • 121625Z AUTO 12014KT 9999 BKN025 OVC028 04/M01 Q1026 BLU

EXPIRED METARs :
  • 121555Z AUTO 12013KT 9999 OVC025 04/M01 Q1026 BLU
  • 121543Z AUTO 11013KT 9999 OVC025 04/M01 Q1026 BLU
  • 121525Z AUTO 11012KT 9999 OVC025 04/M01 Q1026 BLU
  • 121516Z AUTO 12014KT 9999 OVC025 04/M01 Q1026 BLU
  • 121455Z AUTO 11014KT 9999 OVC024 04/M01 Q1026 WHT
  • 121438Z AUTO 11012KT 9999 BKN024 OVC027 04/M00 Q1026 WHT
  • 121437Z AUTO 11012KT 9999 SCT023 OVC026 04/M01 Q1026 WHT
  • 121425Z AUTO 11012KT 9999 OVC026 05/M00 Q1026 BLU
  • 121355Z AUTO 11012KT 9999 FEW029 04/01 Q1026 BLU
  • 121344Z AUTO 11014KT 9999 FEW016 SCT026 BKN031 05/01 Q1026 BLU
  • 121332Z AUTO 09013KT 9999 OVC029/// 05/00 Q1026 BLU
  • 121325Z AUTO 10011KT 9999 FEW020 OVC029 05/01 Q1026 BLU

Expired Forecast.
No reported NOTAMs for that airfield.



MET'MAP, your aeronautical weather chart ! - Copyright ORBIFLY December 2007 - Disclaimer

ORBIFLY MET'MAP TEAM :

Programming & Development : Alexandra Zaïnal
Concept & Development : Baudouin d'Aumeries
Co-Development & Prog : Marc-Olivier Méhu
Technical & hardware support : Manuel Goepfert

Contact : metmap@orbifly.com




SOURCES & CREDITS :

   NOAA